Gas Defiance — V7PF3 — position and weather

sailwx.info

Track history (hours):
 
Tides and Currents Weather Stations Pressure Air Temp Water Temp Dewpoint Dewpoint Depression Visibility Wind Speed Wind Dir Waves Ship Positions

Gas Defiance

Last reported at 2018-Jan-08 06:31 UTC. Time now 2018-Feb-20 23:34 UTC.
Position S 34°16' E 151°03'.
Warning: this ship's position is 43 days out of date.

Length 100 m; draft 5.5 m.

MMSI: 538003218.

Date/timePositionNaut miles runAvg speedWind from/ knotsBaromVisibWave heightAir tempDewpointWater temp
2018-Jan-08 06:31S 34°16' E 151°03'0 0.0
2018-Jan-08 06:25S 34°16' E 151°03'0 0.0
2018-Jan-08 05:58S 34°16' E 151°03'0 0.1
2018-Jan-08 05:25S 34°16' E 151°03'0 0.0
2018-Jan-08 04:58S 34°16' E 151°03'0 0.0
2018-Jan-08 04:28S 34°16' E 151°03'0 0.0
2018-Jan-08 03:58S 34°16' E 151°03'0 0.8
2018-Jan-08 03:30S 34°16' E 151°03'3410.8
2018-Jan-08 00:21S 33°51' E 151°30'4311.0
2018-Jan-07 20:25S 33°14' E 151°59'5 9.9
2018-Jan-07 19:55S 33°10' E 152°02'4 9.7
2018-Jan-07 19:30S 33°07' E 152°05'5 9.6
2018-Jan-07 19:00S 33°03' E 152°08'5 9.6
2018-Jan-07 18:30S 32°59' E 152°12'5 9.7
2018-Jan-07 18:00S 32°55' E 152°15'5 9.9
2018-Jan-07 17:30S 32°51' E 152°19'5 9.8
2018-Jan-07 17:00S 32°47' E 152°22'5 9.6
2018-Jan-07 16:30S 32°44' E 152°26'510.3
2018-Jan-07 16:00S 32°40' E 152°30'611.6
2018-Jan-07 15:30S 32°35' E 152°34'912.4
2018-Jan-07 14:49S 32°28' E 152°40'413.5
2018-Jan-07 14:30S 32°24' E 152°42'713.7
2018-Jan-07 14:00S 32°18' E 152°44'713.3
2018-Jan-07 13:30S 32°12' E 152°47'713.3
2018-Jan-07 13:00S 32°05' E 152°50'713.2
2018-Jan-07 12:30S 31°59' E 152°53'713.0
2018-Jan-07 12:00S 31°53' E 152°56'713.0
2018-Jan-07 11:30S 31°47' E 152°58'17412.5
2018-Jan-06 21:32S 28°58' E 153°45'212.8
2018-Jan-06 21:24S 28°56' E 153°45'1112.5
2018-Jan-06 20:32S 28°45' E 153°45'312.4
2018-Jan-06 20:19S 28°43' E 153°45'1012.1
2018-Jan-06 19:32S 28°33' E 153°45'012.2
2018-Jan-06 19:30S 28°33' E 153°44'612.0
2018-Jan-06 19:00S 28°27' E 153°44'612.2
2018-Jan-06 18:30S 28°21' E 153°44'612.3
2018-Jan-06 18:00S 28°15' E 153°44'612.3
2018-Jan-06 17:30S 28°08' E 153°44'612.6
2018-Jan-06 17:00S 28°02' E 153°43'612.4
2018-Jan-06 16:30S 27°56' E 153°42'612.7
2018-Jan-06 16:00S 27°50' E 153°42'713.4
2018-Jan-06 15:30S 27°43' E 153°41'713.1
2018-Jan-06 14:59S 27°36' E 153°41'713.4
2018-Jan-06 14:29S 27°29' E 153°41'1612.7
2018-Jan-06 13:13S 27°13' E 153°39'312.2
2018-Jan-06 12:58S 27°10' E 153°38'612.1
2018-Jan-06 12:30S 27°05' E 153°38'2310.6
2018-Jan-06 10:18S 26°48' E 153°19'411.3
2018-Jan-06 09:56S 26°46' E 153°16'510.0
2018-Jan-06 09:27S 26°43' E 153°11'610.3
2018-Jan-06 08:55S 26°49' E 153°10'510.6
2018-Jan-06 08:24S 26°54' E 153°11'512.3
2018-Jan-06 08:00S 26°59' E 153°13'612.1
2018-Jan-06 07:30S 27°03' E 153°18'612.5
2018-Jan-06 07:00S 27°09' E 153°21'612.4
2018-Jan-06 06:30S 27°14' E 153°17'611.5
2018-Jan-06 06:00S 27°18' E 153°13'510.9
2018-Jan-06 05:30S 27°23' E 153°10'3 0.3
2018-Jan-05 19:39S 27°25' E 153°08'0 0.1
2018-Jan-05 19:27S 27°25' E 153°08'1 2.5
2018-Jan-05 19:00S 27°25' E 153°09'3 6.7
2018-Jan-05 18:30S 27°22' E 153°11'510.1
2018-Jan-05 18:00S 27°17' E 153°14'510.3
2018-Jan-05 17:30S 27°13' E 153°17'5 9.7
2018-Jan-05 17:00S 27°09' E 153°20'5 9.0
2018-Jan-05 16:30S 27°05' E 153°19'5 9.4
2018-Jan-05 16:00S 27°02' E 153°15'610.4
2018-Jan-05 15:28S 26°57' E 153°12'35 1.4
2018-Jan-04 14:26S 27°22' E 153°40'6 9.4
2018-Jan-04 13:50S 27°27' E 153°40'3 9.5
2018-Jan-04 13:30S 27°31' E 153°40'5 9.6
2018-Jan-04 13:00S 27°35' E 153°40'5 9.6
2018-Jan-04 12:30S 27°40' E 153°41'5 9.5
2018-Jan-04 12:00S 27°45' E 153°42'5 9.5
2018-Jan-04 11:30S 27°50' E 153°42'6 9.7
2018-Jan-04 10:53S 27°56' E 153°43'4 9.7
2018-Jan-04 10:30S 27°59' E 153°42'5 9.6
2018-Jan-04 10:00S 28°04' E 153°42'5 9.9
2018-Jan-04 09:30S 28°09' E 153°42'5 9.7
2018-Jan-04 09:00S 28°14' E 153°43'5 9.9
2018-Jan-04 08:30S 28°19' E 153°43'510.3
2018-Jan-04 08:00S 28°24' E 153°43'510.6
2018-Jan-04 07:30S 28°29' E 153°43'510.4
2018-Jan-04 06:59S 28°34' E 153°43'24010.3
2018-Jan-03 07:42S 32°28' E 152°38'1010.6
2018-Jan-03 06:47S 32°36' E 152°32'310.9
2018-Jan-03 06:30S 32°38' E 152°30'510.7
2018-Jan-03 06:00S 32°43' E 152°26'510.7
2018-Jan-03 05:30S 32°47' E 152°22'510.7
2018-Jan-03 05:00S 32°51' E 152°18'510.6
2018-Jan-03 04:30S 32°55' E 152°13'510.5
2018-Jan-03 04:00S 32°59' E 152°10'510.4
2018-Jan-03 03:30S 33°03' E 152°06'510.6
2018-Jan-03 03:00S 33°08' E 152°03'4810.5
2018-Jan-02 22:26S 33°48' E 151°30'  
2017-Dec-30 05:42S 33°53' E 151°28'412.8
2017-Dec-30 05:21S 33°49' E 151°30'4812.2
2017-Dec-30 01:27S 33°10' E 152°03'511.7
2017-Dec-30 01:00S 33°05' E 152°06'611.4
2017-Dec-30 00:30S 33°01' E 152°10'611.3
2017-Dec-30 00:00S 32°56' E 152°14'611.4
2017-Dec-29 23:31S 32°52' E 152°18'611.3
2017-Dec-29 23:00S 32°47' E 152°22'611.3
2017-Dec-29 22:30S 32°43' E 152°26'611.3
2017-Dec-29 22:00S 32°38' E 152°30'611.3
2017-Dec-29 21:30S 32°34' E 152°35'811.6
2017-Dec-29 20:50S 32°28' E 152°40'2211.6
2017-Dec-29 18:59S 32°07' E 152°48'611.8
2017-Dec-29 18:30S 32°02' E 152°50'612.0
2017-Dec-29 18:00S 31°56' E 152°53'  
Track history (hours):
 
Tides and Currents Weather Stations Pressure Air Temp Water Temp Dewpoint Dewpoint Depression Visibility Wind Speed Wind Dir Waves Ship Positions

Gas Defiance

Last reported at 2018-Jan-08 06:31 UTC. Time now 2018-Feb-20 23:34 UTC.
Position S 34°16' E 151°03'.
Warning: this ship's position is 43 days out of date.

Length 100 m; draft 5.5 m.

MMSI: 538003218.

Date/timePositionNaut miles runAvg speedWind from/ knotsBaromVisibWave heightAir tempDewpointWater temp
2018-Jan-08 06:31S 34°16' E 151°03'0 0.0
2018-Jan-08 06:25S 34°16' E 151°03'0 0.0
2018-Jan-08 05:58S 34°16' E 151°03'0 0.1
2018-Jan-08 05:25S 34°16' E 151°03'0 0.0
2018-Jan-08 04:58S 34°16' E 151°03'0 0.0
2018-Jan-08 04:28S 34°16' E 151°03'0 0.0
2018-Jan-08 03:58S 34°16' E 151°03'0 0.8
2018-Jan-08 03:30S 34°16' E 151°03'3410.8
2018-Jan-08 00:21S 33°51' E 151°30'4311.0
2018-Jan-07 20:25S 33°14' E 151°59'5 9.9
2018-Jan-07 19:55S 33°10' E 152°02'4 9.7
2018-Jan-07 19:30S 33°07' E 152°05'5 9.6
2018-Jan-07 19:00S 33°03' E 152°08'5 9.6
2018-Jan-07 18:30S 32°59' E 152°12'5 9.7
2018-Jan-07 18:00S 32°55' E 152°15'5 9.9
2018-Jan-07 17:30S 32°51' E 152°19'5 9.8
2018-Jan-07 17:00S 32°47' E 152°22'5 9.6
2018-Jan-07 16:30S 32°44' E 152°26'510.3
2018-Jan-07 16:00S 32°40' E 152°30'611.6
2018-Jan-07 15:30S 32°35' E 152°34'912.4
2018-Jan-07 14:49S 32°28' E 152°40'413.5
2018-Jan-07 14:30S 32°24' E 152°42'713.7
2018-Jan-07 14:00S 32°18' E 152°44'713.3
2018-Jan-07 13:30S 32°12' E 152°47'713.3
2018-Jan-07 13:00S 32°05' E 152°50'713.2
2018-Jan-07 12:30S 31°59' E 152°53'713.0
2018-Jan-07 12:00S 31°53' E 152°56'713.0
2018-Jan-07 11:30S 31°47' E 152°58'17412.5
2018-Jan-06 21:32S 28°58' E 153°45'212.8
2018-Jan-06 21:24S 28°56' E 153°45'1112.5
2018-Jan-06 20:32S 28°45' E 153°45'312.4
2018-Jan-06 20:19S 28°43' E 153°45'1012.1
2018-Jan-06 19:32S 28°33' E 153°45'012.2
2018-Jan-06 19:30S 28°33' E 153°44'612.0
2018-Jan-06 19:00S 28°27' E 153°44'612.2
2018-Jan-06 18:30S 28°21' E 153°44'612.3
2018-Jan-06 18:00S 28°15' E 153°44'612.3
2018-Jan-06 17:30S 28°08' E 153°44'612.6
2018-Jan-06 17:00S 28°02' E 153°43'612.4
2018-Jan-06 16:30S 27°56' E 153°42'612.7
2018-Jan-06 16:00S 27°50' E 153°42'713.4
2018-Jan-06 15:30S 27°43' E 153°41'713.1
2018-Jan-06 14:59S 27°36' E 153°41'713.4
2018-Jan-06 14:29S 27°29' E 153°41'1612.7
2018-Jan-06 13:13S 27°13' E 153°39'312.2
2018-Jan-06 12:58S 27°10' E 153°38'612.1
2018-Jan-06 12:30S 27°05' E 153°38'2310.6
2018-Jan-06 10:18S 26°48' E 153°19'411.3
2018-Jan-06 09:56S 26°46' E 153°16'510.0
2018-Jan-06 09:27S 26°43' E 153°11'610.3
2018-Jan-06 08:55S 26°49' E 153°10'510.6
2018-Jan-06 08:24S 26°54' E 153°11'512.3
2018-Jan-06 08:00S 26°59' E 153°13'612.1
2018-Jan-06 07:30S 27°03' E 153°18'612.5
2018-Jan-06 07:00S 27°09' E 153°21'612.4
2018-Jan-06 06:30S 27°14' E 153°17'611.5
2018-Jan-06 06:00S 27°18' E 153°13'510.9
2018-Jan-06 05:30S 27°23' E 153°10'3 0.3
2018-Jan-05 19:39S 27°25' E 153°08'0 0.1
2018-Jan-05 19:27S 27°25' E 153°08'1 2.5
2018-Jan-05 19:00S 27°25' E 153°09'3 6.7
2018-Jan-05 18:30S 27°22' E 153°11'510.1
2018-Jan-05 18:00S 27°17' E 153°14'510.3
2018-Jan-05 17:30S 27°13' E 153°17'5 9.7
2018-Jan-05 17:00S 27°09' E 153°20'5 9.0
2018-Jan-05 16:30S 27°05' E 153°19'5 9.4
2018-Jan-05 16:00S 27°02' E 153°15'610.4
2018-Jan-05 15:28S 26°57' E 153°12'35 1.4
2018-Jan-04 14:26S 27°22' E 153°40'6 9.4
2018-Jan-04 13:50S 27°27' E 153°40'3 9.5
2018-Jan-04 13:30S 27°31' E 153°40'5 9.6
2018-Jan-04 13:00S 27°35' E 153°40'5 9.6
2018-Jan-04 12:30S 27°40' E 153°41'5 9.5
2018-Jan-04 12:00S 27°45' E 153°42'5 9.5
2018-Jan-04 11:30S 27°50' E 153°42'6 9.7
2018-Jan-04 10:53S 27°56' E 153°43'4 9.7
2018-Jan-04 10:30S 27°59' E 153°42'5 9.6
2018-Jan-04 10:00S 28°04' E 153°42'5 9.9
2018-Jan-04 09:30S 28°09' E 153°42'5 9.7
2018-Jan-04 09:00S 28°14' E 153°43'5 9.9
2018-Jan-04 08:30S 28°19' E 153°43'510.3
2018-Jan-04 08:00S 28°24' E 153°43'510.6
2018-Jan-04 07:30S 28°29' E 153°43'510.4
2018-Jan-04 06:59S 28°34' E 153°43'24010.3
2018-Jan-03 07:42S 32°28' E 152°38'1010.6
2018-Jan-03 06:47S 32°36' E 152°32'310.9
2018-Jan-03 06:30S 32°38' E 152°30'510.7
2018-Jan-03 06:00S 32°43' E 152°26'510.7
2018-Jan-03 05:30S 32°47' E 152°22'510.7
2018-Jan-03 05:00S 32°51' E 152°18'510.6
2018-Jan-03 04:30S 32°55' E 152°13'510.5
2018-Jan-03 04:00S 32°59' E 152°10'510.4
2018-Jan-03 03:30S 33°03' E 152°06'510.6
2018-Jan-03 03:00S 33°08' E 152°03'4810.5
2018-Jan-02 22:26S 33°48' E 151°30'  
2017-Dec-30 05:42S 33°53' E 151°28'412.8
2017-Dec-30 05:21S 33°49' E 151°30'4812.2
2017-Dec-30 01:27S 33°10' E 152°03'511.7
2017-Dec-30 01:00S 33°05' E 152°06'611.4
2017-Dec-30 00:30S 33°01' E 152°10'611.3
2017-Dec-30 00:00S 32°56' E 152°14'611.4
2017-Dec-29 23:31S 32°52' E 152°18'611.3
2017-Dec-29 23:00S 32°47' E 152°22'611.3
2017-Dec-29 22:30S 32°43' E 152°26'611.3
2017-Dec-29 22:00S 32°38' E 152°30'611.3
2017-Dec-29 21:30S 32°34' E 152°35'811.6
2017-Dec-29 20:50S 32°28' E 152°40'2211.6
2017-Dec-29 18:59S 32°07' E 152°48'611.8
2017-Dec-29 18:30S 32°02' E 152°50'612.0
2017-Dec-29 18:00S 31°56' E 152°53'  

Dump ship's entire track history